עמוד ראשי
METAR-TAF:

METAR-TAF

שדות תעופה :

פוג'יירה, איחוד האמירויות הערביות

קו רוחב: 25-06N, קו אורך: 056-20E, גובה: 28מטר

תצפית מזג אוויר נוכחית

הדו"ח נערך לפני 37דקות, בשעה 00:00 UTC
רוח 5קשר מכיוון מזרח/צפון-מזרח
טמפרטורת 34 צלסיוס
לחות 75%
לחץ 995 hPa
ראות: 7000מטר
עננים פזורים בגובה 3000רגל

METAR: OMFJ 220000Z 07005KT 7000 SCT030 34/29 Q0995 A2939

זמן: 04:37 (00:37 UTC)

תחזית

הדו"ח נערך לפני 1 שעות ו 37דקות, בשעה 23:00 UTC
תחזית בתוקף מ 22 ב 00 UTC עד 23 ב 06 UTC
רוח 5קשר מכיוון דרום/דרום-מזרח
ראות: 7000מטר
יעשה מ
22 ב 04 UTC עד 22 ב 06 UTC
רוח 10קשר מכיוון מזרח
יעשה מ
22 ב 14 UTC עד 22 ב 16 UTC
רוח 5קשר מכיוון דרום/דרום-מזרח
יעשה מ
22 ב 20 UTC עד 22 ב 22 UTC
רוח 6קשר מכיוון מערב/צפון-מערב

TAF: OMFJ 212300Z 2200/2306 16005KT 7000 NSC BECMG 2204/2206 09010KT BECMG 2214/2216 16005KT BECMG 2220/2222 29006KT

תצפיות ותחזיות מזג אוויר לגבי יותר מ- 4,000 שדות תעופה ברחבי העולם. דוחות METAR ו- TAF.

התחנות הזמינות מסומנות בנקודות צהובות ואדומות על גבי המפה.

העבר את העכבר לנקודה הצבעונית על מנת לראות את שם התחנה.

לאחר מכן, לחץ כדי לראות את תוכן ואת תחזיות מזג האוויר.

כדי לשנות את המפה: לחץ על הכפתורים הירוקים עם הפלוס השחור כדי להתקרב; על הכפתור הירוק עם המקף כדי להתרחק; או בחיצים הירוקים למפות סמוכות.


METAR-TAF: